Terminal Aerodrome Forecast
Issued by NWS

Home | Current Version | Previous Version | Text Only | Print | Product List | Glossary On
Versions: 1 2 3 4 5 6 7 8 9 10 11 12 13 14 15 16 17 18 19 20 21 22 23 24
000
FTUS45 KPSR 180500
TAFPHX
TAF
KPHX 180521Z 1806/1906 VRB05KT P6SM BKN250
     FM180800 09005KT P6SM FEW150 BKN250
     FM181700 17012KT P6SM FEW120 BKN180
     FM182200 23012G20KT P6SM VCSH OVC100
     FM190300 09012KT P6SM SCT080 BKN200=

USA.gov is the U.S. government's official web portal to all federal, state and local government web resources and services.